• Join FlightAware (Why Join?)
  • Login
  • US Flag 
07:18PM EDT


 

Airport Tracker/Info


-or-


 

Live Flight TrackerFlight Track Log ✈ N43812 ✈ 19-Jul-2013 ✈ KCDW - KJHW

Flight Track Log - Related Links

Times and Time Zones

All times are in EDT time to prevent confusion due to time zone crossing. See the N43812 flight status page for this flight to view local times or setup timezone preferences in your user account.

Time Position Orientation Groundspeed Altitude Reporting Facility
EDT Latitude Longitude Course Direction KTS MPH feet Rate Location/Type
09:49AM 41.0142 -74.8492 291° West 80 92 7,400  Level New York Center
09:50AM 41.0214 -74.8797 287° West 80 92 7,800 360 Climbing New York Center
09:51AM 41.0308 -74.9081 294° West 80 92 8,200 300 Climbing New York Center
09:52AM 41.0383 -74.9331 292° West 80 92 8,500 120 Climbing New York Center
09:53AM 41.0475 -74.9667 290° West 86 99 8,500 -60 Level New York Center
09:54AM 41.0567 -75.0003 290° West 98 113 8,400  Descending New York Center
09:55AM 41.1079 -75.1149 291° West  Level Estimated
09:55AM 41.0658 -75.0339 290° West 98 113 8,500  Level New York Center
09:56AM 41.0750 -75.0703 288° West 98 113 8,500  Level New York Center
09:57AM 41.0842 -75.1011 292° West 98 113 8,500  Level New York Center
09:58AM 41.0933 -75.1347 290° West 98 113 8,500  Level New York Center
09:59AM 41.1028 -75.1656 292° West 98 113 8,500  Level New York Center
10:00AM 41.1117 -75.2019 288° West 98 113 8,500  Level New York Center
10:01AM 41.1189 -75.2356 286° West 98 113 8,500  Level New York Center
10:02AM 41.1281 -75.2664 292° West 98 113 8,600  Climbing New York Center
10:03AM 41.1372 -75.2975 291° West 93 107 8,600  Level New York Center
10:04AM 41.1467 -75.3283 292° West 93 107 8,600  Level New York Center
10:05AM 41.1556 -75.3675 287° West 93 107 8,600  Level New York Center
10:06AM 41.1647 -75.3983 292° West 93 107 8,600  Level New York Center
10:07AM 41.1739 -75.4322 290° West 93 107 8,600  Level New York Center
10:08AM 41.1811 -75.4603 289° West 88 101 8,600  Level New York Center
10:09AM 41.1919 -75.4969 291° West 88 101 8,600  Level New York Center
10:10AM 41.1992 -75.5275 287° West 88 101 8,600  Level New York Center
10:11AM 41.2103 -75.5614 294° West 93 107 8,600  Level New York Center
10:12AM 41.2175 -75.5897 289° West 93 107 8,600  Level New York Center
10:13AM 41.2267 -75.6206 292° West 93 107 8,600  Level New York Center
10:14AM 41.2356 -75.6569 288° West 88 101 8,600  Level New York Center
10:15AM 41.2447 -75.6881 291° West 88 101 8,600  Level New York Center
10:16AM 41.2517 -75.7189 287° West 88 101 8,600  Level New York Center
10:17AM 41.2608 -75.7472 293° West 88 101 8,600  Level New York Center
10:18AM 41.2678 -75.7808 285° West 88 101 8,600  Level New York Center
10:19AM 41.2769 -75.8119 291° West 88 101 8,600  Level New York Center
10:20AM 41.2858 -75.8458 289° West 88 101 8,600  Level New York Center
10:21AM 41.2950 -75.8767 292° West 88 101 8,600  Level New York Center
10:22AM 41.3042 -75.9078 291° West 88 101 8,600  Level New York Center
10:23AM 41.3108 -75.9417 285° West 88 101 8,600  Level New York Center
10:24AM 41.3219 -75.9756 294° West 88 101 8,600  Level New York Center
10:25AM 41.3289 -76.0064 287° West 88 101 8,600  Level New York Center
10:26AM 41.3381 -76.0375 291° West 88 101 8,600  Level New York Center
10:27AM 41.3453 -76.0631 291° West 93 107 8,600  Level New York Center
10:28AM 41.3542 -76.0969 289° West 93 107 8,600  Level New York Center
10:29AM 41.3628 -76.1336 287° West 93 107 8,600  Level New York Center
10:30AM 41.3719 -76.1619 293° West 88 101 8,600  Level New York Center
10:31AM 41.3808 -76.1958 289° West 88 101 8,600  Level New York Center
10:32AM 41.3878 -76.2239 288° West 88 101 8,600  Level New York Center
10:33AM 41.3969 -76.2550 291° West 88 101 8,600  Level New York Center
10:34AM 41.4058 -76.2864 291° West 88 101 8,600  Level New York Center
10:35AM 41.4125 -76.3200 285° West 88 101 8,600  Level New York Center
10:36AM 41.4214 -76.3511 291° West 88 101 8,600  Level New York Center
10:37AM 41.4306 -76.3825 291° West 88 101 8,600  Level New York Center
10:38AM 41.4392 -76.4164 289° West 88 101 8,600  Level New York Center
10:39AM 41.4461 -76.4475 287° West 88 101 8,600  Level New York Center
10:40AM 41.4569 -76.4814 293° West 88 101 8,600  Level New York Center
10:41AM 41.4639 -76.5097 288° West 88 101 8,600  Level New York Center
10:42AM 41.4728 -76.5439 289° West 88 101 8,600  Level New York Center
10:43AM 41.4814 -76.5778 289° West 88 101 8,600  Level New York Center
10:44AM 41.4903 -76.6117 289° West 88 101 8,600  Level New York Center
10:45AM 41.4989 -76.6458 289° West 88 101 8,600  Level New York Center
10:46AM 41.5081 -76.6742 293° West 88 101 8,600  Level New York Center
10:47AM 41.5167 -76.7111 287° West 96 110 8,600  Level New York Center
10:48AM 41.5253 -76.7422 290° West 96 110 8,600  Level New York Center
10:49AM 41.5342 -76.7764 289° West 96 110 8,600  Level New York Center
10:50AM 41.5428 -76.8075 290° West 96 110 8,600  Level New York Center
10:51AM 41.5497 -76.8389 286° West 91 105 8,600  Level New York Center
10:52AM 41.5586 -76.8700 291° West 91 105 8,600  Level New York Center
10:53AM 41.5672 -76.9042 289° West 91 105 8,600  Level New York Center
10:54AM 41.5739 -76.9353 286° West 91 105 8,600  Level New York Center
10:55AM 41.5847 -76.9639 297° West 91 105 8,600  Level New York Center
10:56AM 41.5936 -76.9953 291° West 91 105 8,600  Level New York Center
10:57AM 41.6003 -77.0292 285° West 91 105 8,600  Level New York Center
10:58AM 41.6089 -77.0633 289° West 91 105 8,600  Level New York Center
10:59AM 41.6175 -77.0975 289° West 91 105 8,600 -60 Level New York Center
11:00AM 41.6261 -77.1289 290° West 91 105 8,500 -60 Descending New York Center
11:01AM 41.6347 -77.1628 289° West 91 105 8,500  Level New York Center
11:03AM 41.6500 -77.2178 290° West 90 104 8,500  Level Cleveland Center
11:04AM 41.6594 -77.2506 291° West 90 104 8,500  Level Cleveland Center
11:05AM 41.6686 -77.2833 291° West 90 104 8,500  Level Cleveland Center
11:06AM 41.6758 -77.3164 286° West 90 104 8,500  Level Cleveland Center
11:07AM 41.6853 -77.3522 289° West 90 104 8,500  Level Cleveland Center
11:08AM 41.6944 -77.3850 291° West 90 104 8,500  Level Cleveland Center
11:09AM 41.7017 -77.4181 286° West 90 104 8,500  Level Cleveland Center
11:10AM 41.7131 -77.4508 295° West 90 104 8,500  Level Cleveland Center
11:11AM 41.7181 -77.4867 281° West 95 109 8,500  Level Cleveland Center
11:12AM 41.7253 -77.5228 285° West 95 109 8,600  Climbing Cleveland Center
11:13AM 41.7325 -77.5558 286° West 95 109 8,600  Level Cleveland Center
11:14AM 41.7417 -77.5886 291° West 95 109 8,600  Level Cleveland Center
11:15AM 41.7508 -77.6217 290° West 95 109 8,600  Level Cleveland Center
11:16AM 41.7581 -77.6547 286° West 95 109 8,600  Level Cleveland Center
11:17AM 41.7672 -77.6878 290° West 95 109 8,600  Level Cleveland Center
11:18AM 41.7764 -77.7236 289° West 95 109 8,600  Level Cleveland Center
11:19AM 41.7856 -77.7564 291° West 95 109 8,600  Level Cleveland Center
11:20AM 41.7925 -77.7869 287° West 95 109 8,600  Level Cleveland Center
11:21AM 41.7997 -77.8228 285° West 95 109 8,600  Level Cleveland Center
11:22AM 41.8067 -77.8531 287° West 95 109 8,600  Level Cleveland Center
11:23AM 41.8178 -77.8889 293° West 95 109 8,600  Level Cleveland Center
11:24AM 41.8250 -77.9192 288° West 95 109 8,600  Level Cleveland Center
11:25AM 41.8339 -77.9522 290° West 95 109 8,600 -60 Level Cleveland Center
11:26AM 41.8453 -77.9853 295° West 95 109 8,500  Descending Cleveland Center
11:27AM 41.8542 -78.0156 292° West 100 115 8,600  Climbing Cleveland Center
11:28AM 41.8592 -78.0517 281° West 100 115 8,600  Level Cleveland Center
11:29AM 41.8661 -78.0847 286° West 100 115 8,600 180 Level Cleveland Center
11:30AM 41.8731 -78.1153 287° West 95 109 9,000 360 Climbing Cleveland Center
11:31AM 41.8819 -78.1456 292° West 90 104 9,400 300 Climbing Cleveland Center
11:32AM 41.8889 -78.1761 287° West 90 104 9,600 60 Climbing Cleveland Center
11:33AM 41.8958 -78.2064 287° West 90 104 9,600  Level Cleveland Center
11:34AM 41.9050 -78.2422 289° West 90 104 9,600 -60 Level Cleveland Center
11:35AM 41.9119 -78.2783 285° West 96 110 9,500 -600 Descending Cleveland Center
11:36AM 41.9208 -78.3117 290° West 101 116 8,500 -1,440 Descending Cleveland Center
11:37AM 41.9217 -78.3506 272° West 106 122 6,700 -1,800 Descending Cleveland Center
11:38AM 41.9064 -78.3147 120° Southeast 35 40 4,900 -1,500 Descending Cleveland Center
11:39AM 41.9233 -78.3367 316° Northwest 28 32 3,700 -900 Descending Cleveland Center
11:40AM 41.9325 -78.3781 287° West 79 91 3,100 -360 Descending Cleveland Center
11:41AM 41.9436 -78.4139 293° West 105 121 3,000 -60 Descending Cleveland Center
11:42AM 41.9528 -78.4500 289° West 112 129 3,000  Level Cleveland Center
11:43AM 41.9597 -78.4917 283° West 107 123 3,000  Level Cleveland Center
11:44AM 41.9708 -78.5331 290° West 107 123 3,100 -60 Climbing Cleveland Center
11:45AM 41.9819 -78.5692 292° West 107 123 2,900 -60 Descending Cleveland Center
11:46AM 41.9889 -78.6081 284° West 107 123 3,000 60 Climbing Cleveland Center
11:47AM 42.0000 -78.6442 293° West 107 123 3,100  Climbing Cleveland Center
11:48AM 42.0089 -78.6800 288° West 107 123 3,100  Level Cleveland Center
11:49AM 42.0094 -78.7192 271° West 107 123 3,100  Level Cleveland Center
11:50AM 42.0122 -78.7528 276° West 102 117 3,200  Climbing Cleveland Center
11:51AM 42.0211 -78.7886 288° West 102 117 3,200  Level Cleveland Center
11:52AM 42.0300 -78.8306 286° West 107 123 3,200 -60 Level Cleveland Center
11:53AM 42.0411 -78.8692 291° West 107 123 3,100 -60 Descending Cleveland Center
11:54AM 42.0500 -78.9053 288° West 107 123 3,100 180 Level Cleveland Center
11:55AM 42.0631 -78.9469 293° West 107 123 3,500 180 Climbing Cleveland Center
11:56AM 42.0781 -78.9803 301° West 107 123 3,500  Level Cleveland Center
11:58AM 42.0956 -79.0347 294° West  Level FlightAware Approximate
12:05PM 42.1500 -79.2500 323° Northwest  Level FlightAware Approximate
12:06PM 42.1534 -79.2580 323° Northwest  Level Estimated
12:07PM 42.1500 -79.2500 323° Northwest  Level FlightAware Approximate
12:08PM 42.1534 -79.2580 323° Northwest  Level Estimated
12:09PM 42.1500 -79.2500 323° Northwest  Level FlightAware Approximate
12:10PM 42.1534 -79.2580 323° Northwest  Level Estimated
12:11PM 42.1500 -79.2500 323° Northwest  Level FlightAware Approximate
12:12PM 42.1534 -79.2580 323° Northwest  Level Estimated
12:13PM 42.1500 -79.2500 323° Northwest  Level FlightAware Approximate
12:14PM 42.1534 -79.2580 323° Northwest  Level Estimated
12:15PM 42.1500 -79.2500 323° Northwest  Level FlightAware Approximate
12:16PM 42.1534 -79.2580 323° Northwest  Level Estimated
12:17PM 42.1500 -79.2500 323° Northwest  Level FlightAware Approximate
12:18PM 42.1534 -79.2580 323° Northwest  Level Estimated
12:19PM 42.1500 -79.2500 323° Northwest  Level FlightAware Approximate